createdAt,value
2022-09-14T00:00:06.558Z,98844.14
2022-09-14T00:02:40.382Z,98840.81
2022-09-14T00:05:12.617Z,98839.95
2022-09-14T00:07:44.564Z,98841.77
2022-09-14T00:10:16.516Z,98839.14
2022-09-14T00:12:48.591Z,98842.70
2022-09-14T00:15:20.665Z,98833.02
2022-09-14T00:17:52.598Z,98840.81
2022-09-14T00:20:24.520Z,98832.91
2022-09-14T00:22:56.884Z,98835.55
2022-09-14T00:25:29.363Z,98828.61
2022-09-14T00:28:01.145Z,98825.02
2022-09-14T00:30:33.486Z,98823.23
2022-09-14T00:33:05.378Z,98821.64
2022-09-14T00:35:37.855Z,98822.49
2022-09-14T00:38:10.075Z,98817.23
2022-09-14T00:40:42.027Z,98812.08
2022-09-14T00:43:17.179Z,98812.92
2022-09-14T00:45:49.349Z,98822.49
2022-09-14T00:48:24.015Z,98812.81
2022-09-14T00:50:55.523Z,98805.63
2022-09-14T00:53:27.137Z,98810.20
2022-09-14T00:55:59.052Z,98807.06
2022-09-14T00:58:31.048Z,98801.91
2022-09-14T01:01:03.106Z,98794.98
2022-09-14T01:03:35.233Z,98794.02
2022-09-14T01:06:13.080Z,98790.45
2022-09-14T01:09:06.027Z,98792.13
2022-09-14T01:11:51.766Z,98786.01
2022-09-14T01:14:30.031Z,98780.74
2022-09-14T01:17:10.894Z,98783.27
2022-09-14T01:20:11.313Z,98780.74
2022-09-14T01:23:07.002Z,98780.74
2022-09-14T01:25:41.856Z,98786.75
2022-09-14T01:28:25.590Z,98783.27
2022-09-14T01:31:00.649Z,98783.97
2022-09-14T01:33:35.538Z,98776.92
2022-09-14T01:36:11.122Z,98775.03
2022-09-14T01:38:46.191Z,98779.33
2022-09-14T01:41:21.147Z,98770.58
2022-09-14T01:43:58.905Z,98766.16
2022-09-14T01:46:33.632Z,98765.94
2022-09-14T01:49:11.637Z,98761.38
2022-09-14T01:51:49.157Z,98753.47
2022-09-14T01:54:32.475Z,98762.11
2022-09-14T01:57:07.407Z,98759.48
2022-09-14T01:59:42.457Z,98752.50
2022-09-14T02:02:17.455Z,98750.14
2022-09-14T02:05:10.239Z,98738.75
2022-09-14T02:07:42.552Z,98734.57
2022-09-14T02:10:17.442Z,98738.16
2022-09-14T02:12:48.662Z,98737.31
2022-09-14T02:15:20.846Z,98734.94
2022-09-14T02:17:53.769Z,98736.47
2022-09-14T02:20:29.002Z,98733.95
2022-09-14T02:23:01.279Z,98730.61
2022-09-14T02:25:33.929Z,98728.95
2022-09-14T02:28:06.171Z,98730.84
2022-09-14T02:30:57.461Z,98735.87
2022-09-14T02:33:38.226Z,98731.58
2022-09-14T02:36:18.951Z,98727.86
2022-09-14T02:39:10.240Z,98727.64
2022-09-14T02:41:45.197Z,98730.12
2022-09-14T02:44:31.924Z,98724.04
2022-09-14T02:47:06.916Z,98724.16
2022-09-14T02:49:53.685Z,98720.93
2022-09-14T02:52:43.509Z,98726.42
2022-09-14T02:55:18.904Z,98726.54
2022-09-14T02:58:05.320Z,98716.12
2022-09-14T03:00:46.285Z,98709.90
2022-09-14T03:03:21.520Z,98711.83
2022-09-14T03:05:53.555Z,98712.80
2022-09-14T03:08:26.650Z,98712.17
2022-09-14T03:10:58.539Z,98710.50
2022-09-14T03:13:30.581Z,98707.28
2022-09-14T03:16:11.305Z,98701.91
2022-09-14T03:18:43.781Z,98696.64
2022-09-14T03:21:17.818Z,98700.20
2022-09-14T03:23:52.662Z,98691.48
2022-09-14T03:26:26.530Z,98691.48
2022-09-14T03:29:00.478Z,98688.86
2022-09-14T03:31:32.947Z,98697.45
2022-09-14T03:34:04.839Z,98693.16
2022-09-14T03:36:36.722Z,98690.75
2022-09-14T03:39:09.261Z,98685.48
2022-09-14T03:41:41.303Z,98684.67
2022-09-14T03:44:13.254Z,98680.96
2022-09-14T03:46:46.187Z,98675.81
2022-09-14T03:49:18.257Z,98686.34
2022-09-14T03:51:50.729Z,98676.78
2022-09-14T03:54:22.787Z,98676.89
2022-09-14T03:56:55.669Z,98672.45
2022-09-14T03:59:27.809Z,98680.23
2022-09-14T04:02:00.688Z,98685.48
2022-09-14T04:04:32.730Z,98684.41
2022-09-14T04:07:05.178Z,98677.48
2022-09-14T04:09:38.805Z,98679.15
2022-09-14T04:12:11.195Z,98672.10
2022-09-14T04:14:43.282Z,98675.20
2022-09-14T04:17:15.429Z,98669.23
2022-09-14T04:19:47.357Z,98669.94
2022-09-14T04:22:19.531Z,98670.67
2022-09-14T04:24:51.572Z,98671.38
2022-09-14T04:27:23.578Z,98666.84
2022-09-14T04:29:55.592Z,98677.00
2022-09-14T04:32:32.049Z,98679.28
2022-09-14T04:35:01.290Z,98676.15
2022-09-14T04:37:34.249Z,98681.06
2022-09-14T04:40:06.684Z,98674.84
2022-09-14T04:42:38.894Z,98672.44
2022-09-14T04:45:11.463Z,98668.83
2022-09-14T04:47:43.666Z,98672.26
2022-09-14T04:50:15.919Z,98662.21
2022-09-14T04:52:48.128Z,98667.58
2022-09-14T04:55:19.996Z,98666.86
2022-09-14T04:57:52.322Z,98670.77
2022-09-14T05:00:24.403Z,98680.70
2022-09-14T05:02:56.901Z,98677.43
2022-09-14T05:05:29.127Z,98680.28
2022-09-14T05:08:01.286Z,98676.30
2022-09-14T05:10:33.367Z,98677.72
2022-09-14T05:13:05.621Z,98678.41
2022-09-14T05:15:37.728Z,98684.42
2022-09-14T05:18:10.101Z,98690.02
2022-09-14T05:20:42.185Z,98678.69
2022-09-14T05:23:14.454Z,98686.80
2022-09-14T05:25:48.344Z,98686.75
2022-09-14T05:28:20.529Z,98690.87
2022-09-14T05:30:53.307Z,98685.11
2022-09-14T05:33:25.606Z,98682.14
2022-09-14T05:36:02.951Z,98674.40
2022-09-14T05:38:37.005Z,98684.70
2022-09-14T05:41:11.550Z,98678.31
2022-09-14T05:43:43.147Z,98680.83
2022-09-14T05:46:19.500Z,98678.70
2022-09-14T05:48:52.092Z,98672.36
2022-09-14T05:51:26.141Z,98670.18
2022-09-14T05:53:59.602Z,98672.40
2022-09-14T05:56:32.068Z,98669.80
2022-09-14T05:59:04.483Z,98674.39
2022-09-14T06:01:36.743Z,98669.66
2022-09-14T06:04:10.547Z,98669.66
2022-09-14T06:06:49.342Z,98672.56
2022-09-14T06:09:16.898Z,98664.34
2022-09-14T06:11:48.885Z,98675.84
2022-09-14T06:14:21.371Z,98669.97
2022-09-14T06:16:53.874Z,98678.53
2022-09-14T06:19:26.161Z,98655.22
2022-09-14T06:21:58.162Z,98655.22
2022-09-14T06:24:30.353Z,98669.92
2022-09-14T06:27:02.873Z,98676.61
2022-09-14T06:29:34.955Z,98672.86
2022-09-14T06:32:07.101Z,98665.79
2022-09-14T06:34:39.413Z,98664.38
2022-09-14T06:37:11.515Z,98665.48
2022-09-14T06:39:43.553Z,98665.48
2022-09-14T06:42:15.986Z,98674.35
2022-09-14T06:44:49.162Z,98664.64
2022-09-14T06:47:21.208Z,98664.64
2022-09-14T06:49:54.052Z,98663.31
2022-09-14T06:52:28.606Z,98650.61
2022-09-14T06:54:59.974Z,98658.03
2022-09-14T06:57:32.672Z,98650.12
2022-09-14T07:00:06.148Z,98647.34
2022-09-14T07:02:38.218Z,98647.34
2022-09-14T07:05:10.777Z,98653.30
2022-09-14T07:07:43.038Z,98638.65
2022-09-14T07:10:15.305Z,98645.84
2022-09-14T07:12:47.705Z,98624.40
2022-09-14T07:15:19.755Z,98636.80
2022-09-14T07:17:51.824Z,98645.33
2022-09-14T07:20:23.846Z,98642.02
2022-09-14T07:22:56.596Z,98644.96
2022-09-14T07:25:28.828Z,98647.62
2022-09-14T07:28:01.540Z,98641.52
2022-09-14T07:30:38.653Z,98638.02
2022-09-14T07:33:11.001Z,98638.02
2022-09-14T07:35:43.169Z,98638.02
2022-09-14T07:38:15.315Z,98631.34
2022-09-14T07:40:47.516Z,98638.88
2022-09-14T07:43:20.069Z,98632.19
2022-09-14T07:45:52.190Z,98639.55
2022-09-14T07:48:24.346Z,98619.36
2022-09-14T07:51:07.199Z,98619.36
2022-09-14T07:53:42.677Z,98638.02
2022-09-14T07:56:17.039Z,98631.19
2022-09-14T07:58:53.981Z,98641.88
2022-09-14T08:01:23.252Z,98637.30
2022-09-14T08:03:54.457Z,98636.17
2022-09-14T08:06:26.666Z,98629.91
2022-09-14T08:08:58.363Z,98632.16
2022-09-14T08:11:35.299Z,98635.94
2022-09-14T08:14:10.477Z,98631.74
2022-09-14T08:16:43.423Z,98636.23
2022-09-14T08:19:17.402Z,98636.23
2022-09-14T08:21:48.717Z,98627.30
2022-09-14T08:24:22.351Z,98631.64
2022-09-14T08:26:55.188Z,98629.14
2022-09-14T08:29:27.152Z,98623.70
2022-09-14T08:31:59.107Z,98611.91
2022-09-14T08:34:30.972Z,98611.91
2022-09-14T08:37:02.791Z,98617.30
2022-09-14T08:39:34.258Z,98615.13
2022-09-14T08:42:06.209Z,98618.30
2022-09-14T08:44:46.361Z,98614.70
2022-09-14T08:47:29.489Z,98615.94
2022-09-14T08:50:21.455Z,98619.40
2022-09-14T08:52:55.468Z,98612.55
2022-09-14T08:55:44.597Z,98606.75
2022-09-14T08:58:30.814Z,98609.33
2022-09-14T09:01:19.854Z,98610.20
2022-09-14T09:04:24.500Z,98608.70
2022-09-14T09:07:17.933Z,98602.72
2022-09-14T09:09:52.678Z,98612.48
2022-09-14T09:12:42.083Z,98612.95
2022-09-14T09:15:30.706Z,98606.49
2022-09-14T09:18:04.982Z,98609.92
2022-09-14T09:20:39.068Z,98611.41
2022-09-14T09:23:18.625Z,98608.86
2022-09-14T09:26:01.661Z,98616.08
2022-09-14T09:28:34.072Z,98609.92
2022-09-14T09:31:14.594Z,98612.77
2022-09-14T09:33:51.735Z,98606.44
2022-09-14T09:36:25.431Z,98599.47
2022-09-14T09:39:04.448Z,98591.55
2022-09-14T09:41:42.979Z,98593.19
2022-09-14T09:44:15.006Z,98596.05
2022-09-14T09:46:59.307Z,98589.45
2022-09-14T09:49:37.257Z,98597.23
2022-09-14T09:52:15.402Z,98596.56
2022-09-14T09:54:56.716Z,98589.45
2022-09-14T09:57:37.667Z,98594.21
2022-09-14T10:00:24.433Z,98595.44
2022-09-14T10:02:57.193Z,98595.12
2022-09-14T10:05:32.716Z,98603.25
2022-09-14T10:08:11.393Z,98605.33
2022-09-14T10:10:44.854Z,98608.80
2022-09-14T10:13:38.782Z,98608.08
2022-09-14T10:16:19.091Z,98599.51
2022-09-14T10:18:53.841Z,98602.08
2022-09-14T10:21:26.996Z,98601.86
2022-09-14T10:24:22.615Z,98606.92
2022-09-14T10:26:54.591Z,98609.04
2022-09-14T10:29:35.815Z,98610.88
2022-09-14T10:32:17.888Z,98618.42
2022-09-14T10:34:51.339Z,98612.41
2022-09-14T10:37:38.142Z,98608.79
2022-09-14T10:40:19.807Z,98612.82
2022-09-14T10:42:54.640Z,98616.45
2022-09-14T10:45:45.061Z,98612.54
2022-09-14T10:48:46.935Z,98610.03
2022-09-14T10:51:47.148Z,98611.14
2022-09-14T10:54:28.186Z,98616.98
2022-09-14T10:57:31.557Z,98609.89
2022-09-14T11:00:08.351Z,98615.06
2022-09-14T11:02:55.284Z,98616.89
2022-09-14T11:05:30.148Z,98612.81
2022-09-14T11:08:22.577Z,98613.34
2022-09-14T11:11:11.206Z,98616.24
2022-09-14T11:13:45.916Z,98612.47
2022-09-14T11:16:20.911Z,98612.47
2022-09-14T11:18:55.792Z,98614.02
2022-09-14T11:21:30.777Z,98605.49
2022-09-14T11:24:14.741Z,98606.14
2022-09-14T11:26:49.720Z,98588.95
2022-09-14T11:29:37.555Z,98599.89
2022-09-14T11:32:21.368Z,98600.17
2022-09-14T11:34:56.607Z,98599.89
2022-09-14T11:37:37.437Z,98603.48
2022-09-14T11:40:25.055Z,98601.30
2022-09-14T11:43:06.124Z,98600.48
2022-09-14T11:45:53.275Z,98592.30
2022-09-14T11:48:47.698Z,98593.19
2022-09-14T11:51:25.720Z,98590.94
2022-09-14T11:53:57.761Z,98585.05
2022-09-14T11:56:33.305Z,98585.05
2022-09-14T11:59:08.426Z,98591.29
2022-09-14T12:01:40.766Z,98586.78
2022-09-14T12:04:18.048Z,98593.22
2022-09-14T12:06:54.117Z,98590.39
2022-09-14T12:09:29.342Z,98589.08
2022-09-14T12:12:03.459Z,98590.11
2022-09-14T12:14:38.592Z,98587.48
2022-09-14T12:17:41.579Z,98582.41
2022-09-14T12:20:02.799Z,98586.86
2022-09-14T12:22:39.683Z,98582.63
2022-09-14T12:25:14.958Z,98585.95
2022-09-14T12:27:49.948Z,98573.20
2022-09-14T12:30:41.685Z,98579.41
2022-09-14T12:33:33.606Z,98579.17
2022-09-14T12:36:22.801Z,98582.10
2022-09-14T12:38:57.684Z,98570.41
2022-09-14T12:41:40.508Z,98561.52
2022-09-14T12:44:36.593Z,98572.73
2022-09-14T12:47:30.148Z,98576.75
2022-09-14T12:50:20.272Z,98568.36
2022-09-14T12:53:03.850Z,98579.72
2022-09-14T12:55:56.778Z,98572.16
2022-09-14T12:58:38.107Z,98559.89
2022-09-14T13:01:35.739Z,98554.39
2022-09-14T13:04:10.935Z,98559.05
2022-09-14T13:06:46.703Z,98551.06
2022-09-14T13:09:27.031Z,98551.73
2022-09-14T13:12:02.171Z,98555.31
2022-09-14T13:14:37.974Z,98550.06
2022-09-14T13:17:13.125Z,98550.69
2022-09-14T13:19:46.931Z,98551.81
2022-09-14T13:22:24.547Z,98554.28
2022-09-14T13:24:57.226Z,98547.50
2022-09-14T13:27:35.050Z,98555.70
2022-09-14T13:30:13.335Z,98548.13
2022-09-14T13:32:48.112Z,98550.15
2022-09-14T13:35:32.353Z,98547.83
2022-09-14T13:38:10.433Z,98551.49
2022-09-14T13:40:42.937Z,98547.47
2022-09-14T13:43:16.871Z,98545.53
2022-09-14T13:45:51.263Z,98548.92
2022-09-14T13:48:24.375Z,98551.30
2022-09-14T13:50:56.845Z,98544.67
2022-09-14T13:53:45.545Z,98548.78
2022-09-14T13:56:32.819Z,98553.89
2022-09-14T13:59:22.731Z,98546.11
2022-09-14T14:02:03.850Z,98549.89
2022-09-14T14:04:38.760Z,98552.37
2022-09-14T14:07:23.021Z,98540.60
2022-09-14T14:09:58.080Z,98543.13
2022-09-14T14:12:42.651Z,98540.70
2022-09-14T14:15:17.287Z,98554.31
2022-09-14T14:17:49.449Z,98542.27
2022-09-14T14:20:24.739Z,98550.78
2022-09-14T14:23:15.211Z,98555.27
2022-09-14T14:25:56.164Z,98544.11
2022-09-14T14:28:30.525Z,98552.22
2022-09-14T14:31:08.651Z,98550.53
2022-09-14T14:33:41.884Z,98551.66
2022-09-14T14:36:15.075Z,98554.63
2022-09-14T14:38:48.242Z,98556.28
2022-09-14T14:41:22.797Z,98557.55
2022-09-14T14:43:54.081Z,98557.55
2022-09-14T14:46:25.821Z,98562.75
2022-09-14T14:48:58.227Z,98551.87
2022-09-14T14:51:30.277Z,98550.48
2022-09-14T14:54:02.395Z,98555.08
2022-09-14T14:56:35.197Z,98557.05
2022-09-14T14:59:22.085Z,98562.48
2022-09-14T15:01:55.423Z,98555.36
2022-09-14T15:04:27.919Z,98549.39
2022-09-14T15:07:00.488Z,98555.67
2022-09-14T15:09:33.197Z,98550.52
2022-09-14T15:12:08.691Z,98552.03
2022-09-14T15:14:41.134Z,98549.53
2022-09-14T15:17:13.352Z,98548.01
2022-09-14T15:19:45.772Z,98550.66
2022-09-14T15:22:18.108Z,98546.63
2022-09-14T15:24:50.291Z,98537.84
2022-09-14T15:27:22.354Z,98544.27
2022-09-14T15:29:54.570Z,98540.94
2022-09-14T15:32:26.611Z,98547.89
2022-09-14T15:34:58.792Z,98549.55
2022-09-14T15:37:32.744Z,98548.03
2022-09-14T15:40:06.483Z,98543.73
2022-09-14T15:42:39.193Z,98542.06
2022-09-14T15:45:12.146Z,98538.71
2022-09-14T15:47:44.782Z,98542.48
2022-09-14T15:50:17.347Z,98544.59
2022-09-14T15:52:49.698Z,98550.70
2022-09-14T15:55:22.429Z,98546.53
2022-09-14T15:57:54.772Z,98544.02
2022-09-14T16:00:27.149Z,98539.58
2022-09-14T16:02:59.408Z,98544.87
2022-09-14T16:05:34.573Z,98534.56
2022-09-14T16:08:07.573Z,98511.08
2022-09-14T16:10:40.033Z,98500.92
2022-09-14T16:13:12.207Z,98510.09
2022-09-14T16:15:44.626Z,98529.02
2022-09-14T16:18:16.879Z,98522.87
2022-09-14T16:20:49.137Z,98528.34
2022-09-14T16:23:22.171Z,98528.34
2022-09-14T16:25:54.533Z,98524.98
2022-09-14T16:28:28.339Z,98519.02
2022-09-14T16:31:11.351Z,98527.91
2022-09-14T16:33:46.402Z,98526.38
2022-09-14T16:36:22.255Z,98525.56
2022-09-14T16:38:56.741Z,98510.66
2022-09-14T16:41:30.339Z,98510.66
2022-09-14T16:44:05.108Z,98517.63
2022-09-14T16:46:37.405Z,98507.19
2022-09-14T16:49:09.643Z,98489.78
2022-09-14T16:51:41.990Z,98489.78
2022-09-14T16:54:23.075Z,98517.03
2022-09-14T16:56:57.300Z,98501.34
2022-09-14T16:59:29.966Z,98513.44
2022-09-14T17:02:02.586Z,98505.50
2022-09-14T17:04:34.903Z,98496.72
2022-09-14T17:07:07.267Z,98495.06
2022-09-14T17:09:40.974Z,98497.84
2022-09-14T17:12:13.223Z,98494.63
2022-09-14T17:14:46.799Z,98492.97
2022-09-14T17:17:19.206Z,98491.58
2022-09-14T17:19:52.273Z,98488.81
2022-09-14T17:22:25.068Z,98479.37
2022-09-14T17:24:57.520Z,98490.52
2022-09-14T17:27:30.420Z,98479.41
2022-09-14T17:30:02.730Z,98487.16
2022-09-14T17:32:36.439Z,98492.45
2022-09-14T17:35:12.097Z,98487.47
2022-09-14T17:37:47.997Z,98487.74
2022-09-14T17:40:21.206Z,98480.93
2022-09-14T17:42:55.269Z,98462.56
2022-09-14T17:45:29.553Z,98487.33
2022-09-14T17:48:06.751Z,98492.31
2022-09-14T17:50:41.242Z,98485.51
2022-09-14T17:53:22.370Z,98490.66
2022-09-14T17:56:05.235Z,98486.48
2022-09-14T17:58:39.061Z,98473.55
2022-09-14T18:01:18.228Z,98473.55
2022-09-14T18:03:57.765Z,98474.39
2022-09-14T18:06:35.106Z,98474.39
2022-09-14T18:09:11.085Z,98474.39
2022-09-14T18:11:43.605Z,98476.19
2022-09-14T18:14:17.923Z,98481.61
2022-09-14T18:16:51.327Z,98469.37
2022-09-14T18:19:24.842Z,98478.70
2022-09-14T18:21:57.519Z,98475.23
2022-09-14T18:24:30.302Z,98467.85
2022-09-14T18:27:02.807Z,98474.13
2022-09-14T18:29:36.155Z,98465.89
2022-09-14T18:32:09.737Z,98472.29
2022-09-14T18:34:42.890Z,98464.36
2022-09-14T18:37:15.021Z,98464.36
2022-09-14T18:39:48.037Z,98448.23
2022-09-14T18:42:20.233Z,98448.23
2022-09-14T18:44:54.225Z,98454.19
2022-09-14T18:47:26.558Z,98454.90
2022-09-14T18:49:58.633Z,98455.88
2022-09-14T18:52:30.690Z,98466.59
2022-09-14T18:55:02.990Z,98434.62
2022-09-14T18:57:35.349Z,98434.62
2022-09-14T19:00:09.442Z,98459.52
2022-09-14T19:02:41.824Z,98453.66
2022-09-14T19:05:14.796Z,98458.40
2022-09-14T19:07:46.881Z,98453.39
2022-09-14T19:10:19.528Z,98440.59
2022-09-14T19:12:51.616Z,98439.77
2022-09-14T19:15:23.583Z,98437.53
2022-09-14T19:17:55.516Z,98434.89
2022-09-14T19:20:43.134Z,98431.71
2022-09-14T19:23:01.115Z,98408.37
2022-09-14T19:25:34.687Z,98421.69
2022-09-14T19:28:07.855Z,98421.14
2022-09-14T19:30:42.667Z,98424.05
2022-09-14T19:33:14.899Z,98413.35
2022-09-14T19:35:46.952Z,98413.66
2022-09-14T19:38:19.234Z,98413.66
2022-09-14T19:40:54.536Z,98420.19
2022-09-14T19:43:26.780Z,98420.19
2022-09-14T19:46:04.380Z,98415.85
2022-09-14T19:48:37.238Z,98409.18
2022-09-14T19:51:12.064Z,98409.18
2022-09-14T19:53:44.854Z,98399.19
2022-09-14T19:56:19.611Z,98403.08
2022-09-14T19:58:53.839Z,98408.50
2022-09-14T20:01:27.845Z,98405.18
2022-09-14T20:04:00.118Z,98404.47
2022-09-14T20:06:38.205Z,98398.78
2022-09-14T20:09:13.137Z,98398.78
2022-09-14T20:11:46.894Z,98396.64
2022-09-14T20:14:21.559Z,98396.38
2022-09-14T20:16:56.023Z,98394.00
2022-09-14T20:19:29.509Z,98394.00
2022-09-14T20:22:01.476Z,98396.64
2022-09-14T20:24:33.577Z,98399.41
2022-09-14T20:27:05.575Z,98400.26
2022-09-14T20:29:37.590Z,98395.11
2022-09-14T20:32:10.149Z,98395.11
2022-09-14T20:34:42.334Z,98394.98
2022-09-14T20:37:14.409Z,98398.33
2022-09-14T20:39:46.452Z,98398.33
2022-09-14T20:42:18.426Z,98392.75
2022-09-14T20:44:50.505Z,98382.09
2022-09-14T20:47:24.650Z,98382.94
2022-09-14T20:49:56.549Z,98390.72
2022-09-14T20:52:28.631Z,98384.59
2022-09-14T20:55:00.734Z,98368.31
2022-09-14T20:57:33.756Z,98381.11
2022-09-14T21:00:05.923Z,98381.11
2022-09-14T21:02:38.035Z,98378.64
2022-09-14T21:05:10.258Z,98380.40
2022-09-14T21:07:42.624Z,98380.40
2022-09-14T21:10:14.871Z,98379.69
2022-09-14T21:12:47.327Z,98373.86
2022-09-14T21:15:19.228Z,98380.25
2022-09-14T21:17:51.203Z,98363.59
2022-09-14T21:20:23.110Z,98343.41
2022-09-14T21:22:55.323Z,98361.09
2022-09-14T21:25:27.318Z,98361.09
2022-09-14T21:28:00.113Z,98360.38
2022-09-14T21:30:32.528Z,98363.14
2022-09-14T21:33:04.907Z,98356.20
2022-09-14T21:35:36.892Z,98352.05
2022-09-14T21:38:09.195Z,98345.23
2022-09-14T21:40:44.062Z,98353.28
2022-09-14T21:43:16.114Z,98343.00
2022-09-14T21:45:48.260Z,98343.56
2022-09-14T21:48:20.439Z,98343.56
2022-09-14T21:50:53.833Z,98312.58
2022-09-14T21:53:25.882Z,98312.58
2022-09-14T21:55:58.079Z,98338.81
2022-09-14T21:58:30.046Z,98332.86
2022-09-14T22:01:03.693Z,98330.48
2022-09-14T22:03:36.126Z,98331.47
2022-09-14T22:06:11.743Z,98328.70
2022-09-14T22:08:44.325Z,98325.34
2022-09-14T22:11:22.394Z,98326.33
2022-09-14T22:13:57.207Z,98326.33
2022-09-14T22:16:31.108Z,98314.25
2022-09-14T22:19:05.958Z,98312.72
2022-09-14T22:21:39.517Z,98310.22
2022-09-14T22:24:14.682Z,98314.09
2022-09-14T22:26:47.198Z,98303.67
2022-09-14T22:29:20.259Z,98307.42
2022-09-14T22:31:52.588Z,98307.42
2022-09-14T22:34:24.691Z,98295.34
2022-09-14T22:36:56.727Z,98299.77
2022-09-14T22:39:29.587Z,98297.14
2022-09-14T22:42:01.638Z,98287.56
2022-09-14T22:44:33.688Z,98291.86
2022-09-14T22:47:05.636Z,98289.23
2022-09-14T22:49:37.602Z,98287.44
2022-09-14T22:52:09.553Z,98282.98
2022-09-14T22:54:41.780Z,98287.44
2022-09-14T22:57:13.673Z,98283.14
2022-09-14T22:59:45.810Z,98281.19
2022-09-14T23:02:17.849Z,98280.20
2022-09-14T23:04:50.281Z,98277.57
2022-09-14T23:07:22.145Z,98279.09
2022-09-14T23:09:54.110Z,98279.94
2022-09-14T23:12:26.078Z,98275.52
2022-09-14T23:14:58.014Z,98269.39
2022-09-14T23:17:30.031Z,98272.88
2022-09-14T23:20:01.957Z,98277.17
2022-09-14T23:22:33.996Z,98271.05
2022-09-14T23:25:06.463Z,98259.69
2022-09-14T23:27:38.398Z,98261.34
2022-09-14T23:30:10.901Z,98259.69
2022-09-14T23:32:42.786Z,98262.33
2022-09-14T23:35:14.959Z,98264.12
2022-09-14T23:37:46.763Z,98260.50
2022-09-14T23:40:19.762Z,98256.08
2022-09-14T23:42:52.034Z,98256.92
2022-09-14T23:45:24.097Z,98258.58
2022-09-14T23:47:56.180Z,98255.81
2022-09-14T23:50:28.580Z,98261.89
2022-09-14T23:53:00.637Z,98257.33
2022-09-14T23:55:32.786Z,98258.14
2022-09-14T23:58:05.236Z,98265.24
